Flight Track Log - Related Links

Times and Time Zones

All times are in EDT time to prevent confusion due to time zone crossing. See the ACA289 flight status page for this flight to view local times or setup timezone preferences in your user account.

Time Position Orientation Groundspeed Altitude Reporting Facility
EDT Latitude Longitude Course Direction KTS MPH feet Rate Location/Type
Thu 02:04:10 PM 49.1667 -123.2333 270° West 160 184 1,400  Level Vancouver Center
Thu 02:05:10 PM 49.1833 -123.3333 284° West 220 253 3,000 2,350 Climbing Vancouver Center
Thu 02:06:00 PM 49.3610 -123.3638 342° North  Level FlightAware Approximate
Thu 02:06:10 PM 49.2167 -123.3833 316° Northwest 220 253 6,100  Level Vancouver Center
Thu 02:07:00 PM 49.4632 -123.4506 333° Northwest  Level FlightAware Approximate
Thu 02:07:10 PM 49.2833 -123.3667 North 240 276 8,500  Level Vancouver Center
Thu 02:08:00 PM 49.5656 -123.5368 338° Northwest  Level FlightAware Approximate
Thu 02:08:10 PM 49.3667 -123.3667 360° North 280 322 10,700  Level Vancouver Center
Thu 02:09:00 PM 49.6667 -123.6123 270° West  Level FlightAware Approximate
Thu 02:09:10 PM 49.4500 -123.3333 15° North 340 391 11,800  Level Vancouver Center
Thu 02:10:10 PM 49.5500 -123.3167 North 350 403 14,600 2,400 Climbing Vancouver Center
Thu 02:11:10 PM 49.6500 -123.2833 12° North 360 414 16,600 1,900 Climbing Vancouver Center
Thu 02:12:10 PM 49.7500 -123.2500 12° North 380 437 18,400 1,850 Climbing Vancouver Center
Thu 02:13:10 PM 49.8500 -123.2833 348° North 380 437 20,300 1,850 Climbing Vancouver Center
Thu 02:14:10 PM 49.9500 -123.3500 337° Northwest 390 449 22,100 1,750 Climbing Vancouver Center
Thu 02:15:10 PM 50.0500 -123.4333 332° Northwest 390 449 23,800 1,700 Climbing Vancouver Center
Thu 02:16:10 PM 50.1500 -123.5167 332° Northwest 400 460 25,500 1,500 Climbing Vancouver Center
Thu 02:17:10 PM 50.2500 -123.5833 337° Northwest 400 460 26,800 1,150 Climbing Vancouver Center
Thu 02:18:10 PM 50.3500 -123.6667 332° Northwest 410 472 27,800 1,100 Climbing Vancouver Center
Thu 02:19:10 PM 50.4500 -123.7500 332° Northwest 410 472 29,000 1,350 Climbing Vancouver Center
Thu 02:20:10 PM 50.5667 -123.8167 340° North 420 483 30,500 1,300 Climbing Vancouver Center
Thu 02:21:10 PM 50.6667 -123.9000 332° Northwest 410 472 31,600 1,050 Climbing Vancouver Center
Thu 02:22:10 PM 50.7667 -123.9833 332° Northwest 400 460 32,600 850 Climbing Vancouver Center
Thu 02:23:10 PM 50.8667 -124.0667 332° Northwest 400 460 33,300 800 Climbing Vancouver Center
Thu 02:24:10 PM 50.9667 -124.1500 332° Northwest 410 472 34,200 950 Climbing Vancouver Center
Thu 02:25:10 PM 51.0667 -124.2167 337° Northwest 400 460 35,200 800 Climbing Vancouver Center
Thu 02:26:10 PM 51.1667 -124.2833 337° Northwest 390 449 35,800 400 Climbing Vancouver Center
Thu 02:27:10 PM 51.2667 -124.3833 328° Northwest 400 460 36,000 100 Climbing Vancouver Center
Thu 02:28:10 PM 51.3667 -124.4333 343° North 410 472 36,000  Level Vancouver Center
Thu 02:29:10 PM 51.4833 -124.5500 328° Northwest 420 483 36,000  Level Vancouver Center
Thu 02:30:10 PM 51.5833 -124.6000 343° North 420 483 36,000  Level Vancouver Center
Thu 02:31:10 PM 51.6833 -124.7167 324° Northwest 420 483 36,000  Level Vancouver Center
Thu 02:32:10 PM 51.7833 -124.8000 333° Northwest 420 483 36,000  Level Vancouver Center
Thu 02:33:10 PM 51.8833 -124.8833 333° Northwest 420 483 36,000  Level Vancouver Center
Thu 02:34:10 PM 52.0000 -124.9667 336° Northwest 420 483 36,000  Level Vancouver Center
Thu 02:35:10 PM 52.1000 -125.0500 333° Northwest 420 483 36,000  Level Vancouver Center
Thu 02:36:10 PM 52.2000 -125.1333 333° Northwest 420 483 36,000  Level Vancouver Center
Thu 02:37:10 PM 52.3000 -125.2167 333° Northwest 420 483 36,000  Level Vancouver Center
Thu 02:38:10 PM 52.4000 -125.3000 333° Northwest 420 483 36,000  Level Vancouver Center
Thu 02:39:10 PM 52.5167 -125.3833 337° Northwest 420 483 36,000  Level Vancouver Center
Thu 02:40:10 PM 52.6167 -125.4667 333° Northwest 410 472 36,000  Level Vancouver Center
Thu 02:41:10 PM 52.7167 -125.5667 329° Northwest 420 483 36,000  Level Vancouver Center
Thu 02:42:10 PM 52.8333 -125.6500 337° Northwest 420 483 36,000  Level Vancouver Center
Thu 02:43:10 PM 52.9333 -125.7333 333° Northwest 420 483 36,000  Level Vancouver Center
Thu 02:44:10 PM 53.0333 -125.8167 333° Northwest 420 483 36,000  Level Vancouver Center
Thu 02:45:10 PM 53.1333 -125.9167 329° Northwest 420 483 36,000  Level Vancouver Center
Thu 02:46:10 PM 53.2333 -126.0333 325° Northwest 420 483 36,000  Level Vancouver Center
Thu 02:47:10 PM 53.3333 -126.0833 343° North 420 483 36,000  Level Vancouver Center
Thu 02:48:10 PM 53.4333 -126.2000 325° Northwest 420 483 36,000  Level Vancouver Center
Thu 02:49:10 PM 53.5333 -126.3000 329° Northwest 420 483 36,000  Level Vancouver Center
Thu 02:50:10 PM 53.6333 -126.3833 334° Northwest 420 483 36,000  Level Vancouver Center
Thu 02:51:10 PM 53.7500 -126.4833 333° Northwest 420 483 36,000  Level Vancouver Center
Thu 02:52:10 PM 53.8500 -126.5667 334° Northwest 420 483 36,000  Level Vancouver Center
Thu 02:53:10 PM 53.9500 -126.6667 330° Northwest 420 483 36,000  Level Vancouver Center
Thu 02:54:10 PM 54.0500 -126.7500 334° Northwest 410 472 36,000  Level Vancouver Center
Thu 02:55:10 PM 54.1500 -126.8500 330° Northwest 420 483 36,000  Level Vancouver Center
Thu 02:56:10 PM 54.2500 -126.9333 334° Northwest 420 483 36,000  Level Vancouver Center
Thu 02:57:10 PM 54.3500 -127.0333 330° Northwest 420 483 36,000  Level Vancouver Center
Thu 02:58:10 PM 54.4667 -127.1333 334° Northwest 420 483 36,000  Level Vancouver Center
Thu 02:59:10 PM 54.5667 -127.2167 334° Northwest 420 483 36,000  Level Vancouver Center
Thu 03:00:10 PM 54.6500 -127.3167 325° Northwest 410 472 36,000  Level Vancouver Center
Thu 03:01:10 PM 54.7667 -127.4167 334° Northwest 410 472 36,000  Level Vancouver Center
Thu 03:02:10 PM 54.8667 -127.5333 326° Northwest 440 506 36,000  Level Vancouver Center
Thu 03:03:10 PM 54.9667 -127.6333 330° Northwest 420 483 36,000  Level Vancouver Center
Thu 03:04:10 PM 55.0667 -127.7333 330° Northwest 420 483 36,000  Level Vancouver Center
Thu 03:05:10 PM 55.1833 -127.8333 334° Northwest 420 483 36,000  Level Vancouver Center
Thu 03:06:10 PM 55.2833 -127.9333 330° Northwest 420 483 36,000  Level Vancouver Center
Thu 03:07:10 PM 55.3833 -128.0167 335° Northwest 400 460 36,000  Level Vancouver Center
Thu 03:08:10 PM 55.4667 -128.1167 326° Northwest 430 495 36,000  Level Vancouver Center
Thu 03:09:10 PM 55.5667 -128.2167 331° Northwest 420 483 36,000  Level Vancouver Center
Thu 03:10:10 PM 55.6833 -128.3167 334° Northwest 410 472 36,000  Level Vancouver Center
Thu 03:11:10 PM 55.7833 -128.4167 331° Northwest 410 472 36,000  Level Vancouver Center
Thu 03:12:10 PM 55.8833 -128.5167 331° Northwest 400 460 36,000  Level Vancouver Center
Thu 03:13:10 PM 55.9667 -128.6167 326° Northwest 410 472 36,000  Level Vancouver Center
Thu 03:14:10 PM 56.0667 -128.7167 331° Northwest 400 460 36,000  Level Vancouver Center
Thu 03:15:10 PM 56.1667 -128.8333 327° Northwest 400 460 36,000  Level Vancouver Center
Thu 03:16:10 PM 56.2667 -128.9333 331° Northwest 400 460 36,000  Level Vancouver Center
Thu 03:17:10 PM 56.3500 -129.0333 326° Northwest 410 472 36,000  Level Vancouver Center
Thu 03:18:10 PM 56.4500 -129.1333 331° Northwest 400 460 36,000  Level Vancouver Center
Thu 03:19:10 PM 56.5500 -129.2333 331° Northwest 400 460 36,000  Level Vancouver Center
Thu 03:20:10 PM 56.6333 -129.3167 331° Northwest 400 460 36,000  Level Vancouver Center
Thu 03:21:10 PM 56.7333 -129.4167 331° Northwest 400 460 36,000  Level Vancouver Center
Thu 03:22:10 PM 56.8167 -129.5500 319° Northwest 400 460 36,000  Level Vancouver Center
Thu 03:23:10 PM 56.9167 -129.6500 331° Northwest 400 460 36,000  Level Vancouver Center
Thu 03:25:00 PM 57.0811 -129.8564 326° Northwest  Level FlightAware Approximate
Thu 03:32:00 PM 57.7046 -130.6654 324° Northwest  Level FlightAware Approximate
Thu 03:33:00 PM 57.7919 -130.7868 323° Northwest  Level FlightAware Approximate
Thu 03:34:00 PM 57.8790 -130.9088 323° Northwest  Level FlightAware Approximate
Thu 03:35:00 PM 57.9660 -131.0314 323° Northwest  Level FlightAware Approximate
Thu 03:36:00 PM 58.0529 -131.1545 323° Northwest  Level FlightAware Approximate
Thu 03:37:00 PM 58.1396 -131.2783 323° Northwest  Level FlightAware Approximate
Thu 03:38:00 PM 58.2263 -131.4027 323° Northwest  Level FlightAware Approximate
Thu 03:39:00 PM 58.3128 -131.5277 323° Northwest  Level FlightAware Approximate
Thu 03:40:00 PM 58.4001 -131.6509 324° Northwest  Level FlightAware Approximate
Thu 03:41:00 PM 58.4874 -131.7746 323° Northwest  Level FlightAware Approximate
Thu 03:42:00 PM 58.5745 -131.8990 323° Northwest  Level FlightAware Approximate
Thu 03:43:00 PM 58.6610 -132.0252 322° Northwest  Level FlightAware Approximate
Thu 03:44:00 PM 58.7464 -132.1546 322° Northwest  Level FlightAware Approximate
Thu 03:45:00 PM 58.8316 -132.2846 322° Northwest  Level FlightAware Approximate
Thu 03:46:00 PM 58.9167 -132.4153 322° Northwest  Level FlightAware Approximate
Thu 03:47:00 PM 59.0037 -132.5417 324° Northwest  Level FlightAware Approximate
Thu 03:48:00 PM 59.0902 -132.6694 322° Northwest  Level FlightAware Approximate
Thu 03:49:00 PM 59.1754 -132.8009 322° Northwest  Level FlightAware Approximate
Thu 03:50:00 PM 59.2602 -132.9336 320° Northwest  Level FlightAware Approximate
Thu 03:51:00 PM 59.3448 -133.0671 323° Northwest  Level FlightAware Approximate
Thu 03:52:00 PM 59.4289 -133.2020 322° Northwest  Level FlightAware Approximate
Thu 03:53:00 PM 59.5146 -133.3334 322° Northwest  Level FlightAware Approximate
Thu 03:54:00 PM 59.6003 -133.4654 322° Northwest  Level FlightAware Approximate
Thu 03:55:00 PM 59.6848 -133.6005 321° Northwest  Level FlightAware Approximate
Thu 03:56:00 PM 59.7686 -133.7376 321° Northwest  Level FlightAware Approximate
Thu 03:57:00 PM 59.8527 -133.8745 321° Northwest  Level FlightAware Approximate
Thu 03:58:00 PM 59.9372 -134.0107 321° Northwest  Level FlightAware Approximate
Thu 03:59:00 PM 60.0216 -134.1476 321° Northwest  Level FlightAware Approximate
Thu 04:00:00 PM 60.1045 -134.2884 320° Northwest  Level FlightAware Approximate
Thu 04:01:00 PM 60.1891 -134.4251 323° Northwest  Level FlightAware Approximate
Thu 04:02:00 PM 60.2762 -134.5559 323° Northwest  Level FlightAware Approximate
Thu 04:03:00 PM 60.3598 -134.6961 320° Northwest  Level FlightAware Approximate
Thu 04:04:00 PM 60.4429 -134.8378 320° Northwest  Level FlightAware Approximate
Thu 04:05:00 PM 60.5276 -134.9758 321° Northwest  Level FlightAware Approximate
Thu 04:06:00 PM 60.6021 -135.1187 334° Northwest  Level FlightAware Approximate
Thu 04:07:00 PM 60.7000 -135.0667 18° North  Level FlightAware Approximate
Thu 04:08:00 PM 60.7095 -135.0673 18° North  Level Estimated
Thu 04:09:00 PM 60.7095 -135.0673 18° North  Level Estimated
Thu 04:10:00 PM 60.7095 -135.0673 18° North  Level Estimated
Thu 04:11:00 PM 60.7095 -135.0673 18° North  Level Estimated
Thu 04:12:00 PM 60.7095 -135.0673 18° North  Level Estimated
Thu 04:13:00 PM 60.7095 -135.0673 18° North  Level Estimated
Thu 04:14:00 PM 60.7095 -135.0673 18° North  Level Estimated
Thu 04:15:00 PM 60.7095 -135.0673 18° North  Level Estimated
Thu 04:16:00 PM 60.7095 -135.0673 18° North  Level Estimated

Login

Don't have an account? Register now (free) for customized features, flight alerts, and more!